createdAt,value
2024-04-24T00:01:18.328Z,97225.34
2024-04-24T00:04:10.276Z,97213.58
2024-04-24T00:06:37.677Z,97215.22
2024-04-24T00:09:04.662Z,97209.19
2024-04-24T00:11:31.811Z,97198.50
2024-04-24T00:14:08.110Z,97185.73
2024-04-24T00:16:36.079Z,97183.23
2024-04-24T00:19:03.210Z,97175.49
2024-04-24T00:21:36.750Z,97178.64
2024-04-24T00:24:18.652Z,97176.98
2024-04-24T00:26:50.035Z,97175.95
2024-04-24T00:29:17.056Z,97172.29
2024-04-24T00:31:44.202Z,97168.04
2024-04-24T00:34:14.879Z,97163.27
2024-04-24T00:36:42.176Z,97160.92
2024-04-24T00:39:09.140Z,97162.92
2024-04-24T00:41:36.563Z,97161.36
2024-04-24T00:44:15.050Z,97153.17
2024-04-24T00:46:49.691Z,97147.28
2024-04-24T00:49:52.673Z,97141.55
2024-04-24T00:52:23.097Z,97137.34
2024-04-24T00:54:50.266Z,97133.98
2024-04-24T00:57:17.371Z,97134.56
2024-04-24T00:59:44.510Z,97138.54
2024-04-24T01:02:11.618Z,97141.08
2024-04-24T01:04:39.088Z,97134.37
2024-04-24T01:07:36.730Z,97133.92
2024-04-24T01:10:16.141Z,97127.36
2024-04-24T01:12:43.727Z,97124.16
2024-04-24T01:15:11.011Z,97122.95
2024-04-24T01:17:39.521Z,97122.99
2024-04-24T01:20:10.395Z,97113.90
2024-04-24T01:22:48.973Z,97109.38
2024-04-24T01:25:21.968Z,97109.94
2024-04-24T01:27:49.583Z,97104.15
2024-04-24T01:30:28.715Z,97099.02
2024-04-24T01:33:32.764Z,97095.83
2024-04-24T01:36:00.077Z,97099.33
2024-04-24T01:38:27.127Z,97096.86
2024-04-24T01:40:54.215Z,97094.85
2024-04-24T01:43:21.378Z,97091.61
2024-04-24T01:45:48.428Z,97085.47
2024-04-24T01:48:15.681Z,97082.73
2024-04-24T01:50:43.310Z,97084.11
2024-04-24T01:53:30.678Z,97080.48
2024-04-24T01:56:14.026Z,97081.19
2024-04-24T01:58:44.513Z,97079.84
2024-04-24T02:01:22.901Z,97079.73
2024-04-24T02:03:50.289Z,97076.64
2024-04-24T02:06:18.362Z,97076.41
2024-04-24T02:08:45.360Z,97079.81
2024-04-24T02:11:16.338Z,97075.63
2024-04-24T02:13:45.505Z,97075.16
2024-04-24T02:16:13.042Z,97075.22
2024-04-24T02:18:51.351Z,97071.41
2024-04-24T02:21:18.610Z,97071.26
2024-04-24T02:23:49.092Z,97066.13
2024-04-24T02:26:16.648Z,97066.25
2024-04-24T02:28:50.366Z,97068.43
2024-04-24T02:31:37.532Z,97064.27
2024-04-24T02:34:09.687Z,97067.55
2024-04-24T02:36:36.909Z,97061.73
2024-04-24T02:39:03.877Z,97059.46
2024-04-24T02:41:34.318Z,97056.16
2024-04-24T02:44:04.761Z,97054.48
2024-04-24T02:46:49.939Z,97050.55
2024-04-24T02:49:21.423Z,97049.33
2024-04-24T02:51:54.006Z,97049.64
2024-04-24T02:55:04.835Z,97044.77
2024-04-24T02:57:41.616Z,97044.61
2024-04-24T03:00:08.864Z,97044.30
2024-04-24T03:02:36.318Z,97042.09
2024-04-24T03:05:03.506Z,97040.46
2024-04-24T03:07:45.933Z,97043.77
2024-04-24T03:10:20.742Z,97043.33
2024-04-24T03:12:47.834Z,97041.20
2024-04-24T03:15:14.820Z,97042.71
2024-04-24T03:17:42.095Z,97032.40
2024-04-24T03:20:09.579Z,97038.94
2024-04-24T03:22:36.606Z,97034.30
2024-04-24T03:25:03.963Z,97036.17
2024-04-24T03:27:31.044Z,97031.59
2024-04-24T03:29:58.480Z,97028.60
2024-04-24T03:32:25.690Z,97026.95
2024-04-24T03:34:52.737Z,97026.98
2024-04-24T03:37:19.786Z,97027.33
2024-04-24T03:39:47.335Z,97026.84
2024-04-24T03:42:14.343Z,97029.27
2024-04-24T03:44:52.093Z,97027.60
2024-04-24T03:47:19.396Z,97027.23
2024-04-24T03:49:46.489Z,97026.06
2024-04-24T03:52:33.299Z,97019.89
2024-04-24T03:55:07.016Z,97015.80
2024-04-24T03:57:45.203Z,97015.52
2024-04-24T04:00:12.323Z,97017.27
2024-04-24T04:02:39.557Z,97017.56
2024-04-24T04:05:12.446Z,97016.16
2024-04-24T04:07:39.845Z,97012.83
2024-04-24T04:10:07.664Z,97014.58
2024-04-24T04:12:35.312Z,97014.67
2024-04-24T04:15:12.647Z,97013.70
2024-04-24T04:17:43.732Z,97010.35
2024-04-24T04:20:11.348Z,97010.95
2024-04-24T04:22:41.775Z,97009.08
2024-04-24T04:25:10.709Z,97014.91
2024-04-24T04:27:37.828Z,97018.46
2024-04-24T04:30:05.087Z,97020.00
2024-04-24T04:32:32.142Z,97016.89
2024-04-24T04:34:59.212Z,97015.61
2024-04-24T04:37:26.211Z,97021.02
2024-04-24T04:39:53.623Z,97019.15
2024-04-24T04:42:20.573Z,97018.27
2024-04-24T04:44:47.583Z,97017.45
2024-04-24T04:47:15.315Z,97014.80
2024-04-24T04:49:42.619Z,97014.73
2024-04-24T04:52:10.526Z,97014.85
2024-04-24T04:54:37.522Z,97014.89
2024-04-24T04:57:04.506Z,97014.67
2024-04-24T04:59:31.410Z,97015.58
2024-04-24T05:01:59.815Z,97009.16
2024-04-24T05:04:27.261Z,97007.67
2024-04-24T05:06:54.736Z,97011.99
2024-04-24T05:09:22.017Z,97009.35
2024-04-24T05:11:49.447Z,97007.73
2024-04-24T05:14:19.984Z,97006.90
2024-04-24T05:16:52.942Z,97005.55
2024-04-24T05:19:40.638Z,97002.56
2024-04-24T05:22:13.953Z,97002.77
2024-04-24T05:24:44.166Z,97001.34
2024-04-24T05:27:30.254Z,97002.36
2024-04-24T05:29:57.268Z,96998.38
2024-04-24T05:32:24.381Z,96995.92
2024-04-24T05:34:51.699Z,96995.33
2024-04-24T05:37:21.486Z,96993.63
2024-04-24T05:39:48.947Z,96994.50
2024-04-24T05:42:16.610Z,96997.38
2024-04-24T05:44:43.946Z,96999.38
2024-04-24T05:47:11.019Z,96997.76
2024-04-24T05:49:38.393Z,96997.23
2024-04-24T05:52:25.912Z,96996.73
2024-04-24T05:54:53.420Z,96996.52
2024-04-24T05:57:26.596Z,96995.23
2024-04-24T06:00:04.463Z,96996.41
2024-04-24T06:02:35.680Z,96993.55
2024-04-24T06:05:12.115Z,96994.29
2024-04-24T06:07:48.347Z,96992.33
2024-04-24T06:10:24.977Z,96988.35
2024-04-24T06:12:56.157Z,96992.48
2024-04-24T06:15:35.143Z,96996.10
2024-04-24T06:18:22.150Z,96995.95
2024-04-24T06:20:56.313Z,96996.85
2024-04-24T06:23:23.770Z,96999.39
2024-04-24T06:25:51.275Z,96997.48
2024-04-24T06:28:21.785Z,97004.63
2024-04-24T06:30:51.895Z,97001.38
2024-04-24T06:33:25.218Z,96998.29
2024-04-24T06:35:55.130Z,96997.64
2024-04-24T06:38:24.891Z,96997.10
2024-04-24T06:40:55.495Z,96997.73
2024-04-24T06:43:22.942Z,96996.42
2024-04-24T06:45:49.943Z,96995.70
2024-04-24T06:48:17.207Z,96993.27
2024-04-24T06:50:44.768Z,96990.31
2024-04-24T06:53:12.173Z,96991.44
2024-04-24T06:55:44.935Z,96992.83
2024-04-24T06:58:17.784Z,97001.32
2024-04-24T07:00:48.018Z,97005.11
2024-04-24T07:03:17.532Z,97003.30
2024-04-24T07:05:44.913Z,96998.54
2024-04-24T07:08:12.558Z,96999.36
2024-04-24T07:10:49.745Z,96998.77
2024-04-24T07:13:20.351Z,97000.31
2024-04-24T07:16:02.912Z,96997.11
2024-04-24T07:18:30.216Z,96995.21
2024-04-24T07:20:57.642Z,97002.88
2024-04-24T07:23:25.225Z,96999.90
2024-04-24T07:25:52.267Z,97003.02
2024-04-24T07:28:19.512Z,96998.44
2024-04-24T07:30:50.048Z,97007.85
2024-04-24T07:33:17.293Z,97010.92
2024-04-24T07:35:44.266Z,97006.61
2024-04-24T07:38:12.581Z,97005.53
2024-04-24T07:40:42.351Z,97004.41
2024-04-24T07:43:14.106Z,97010.79
2024-04-24T07:45:41.753Z,97006.47
2024-04-24T07:48:09.317Z,97008.24
2024-04-24T07:50:39.138Z,97006.61
2024-04-24T07:53:09.407Z,97012.79
2024-04-24T07:55:36.870Z,97012.73
2024-04-24T07:58:04.820Z,97018.27
2024-04-24T08:00:33.030Z,97017.73
2024-04-24T08:03:02.177Z,97017.84
2024-04-24T08:05:29.566Z,97019.13
2024-04-24T08:07:56.882Z,97018.15
2024-04-24T08:10:24.007Z,97015.14
2024-04-24T08:12:51.036Z,97013.10
2024-04-24T08:15:18.025Z,97014.71
2024-04-24T08:17:45.363Z,97015.57
2024-04-24T08:20:12.604Z,97012.48
2024-04-24T08:22:40.035Z,97012.71
2024-04-24T08:25:07.275Z,97013.06
2024-04-24T08:27:34.789Z,97015.21
2024-04-24T08:30:06.042Z,97016.16
2024-04-24T08:32:36.277Z,97015.69
2024-04-24T08:35:07.006Z,97020.20
2024-04-24T08:37:36.932Z,97019.63
2024-04-24T08:40:17.932Z,97022.02
2024-04-24T08:42:45.737Z,97020.80
2024-04-24T08:45:15.575Z,97017.55
2024-04-24T08:47:43.655Z,97020.98
2024-04-24T08:50:11.155Z,97020.49
2024-04-24T08:52:40.620Z,97022.85
2024-04-24T08:55:13.603Z,97025.55
2024-04-24T08:57:45.907Z,97024.89
2024-04-24T09:00:16.727Z,97024.29
2024-04-24T09:02:50.479Z,97028.58
2024-04-24T09:05:21.760Z,97028.84
2024-04-24T09:07:55.628Z,97022.19
2024-04-24T09:10:25.908Z,97019.71
2024-04-24T09:12:56.443Z,97017.04
2024-04-24T09:15:28.023Z,97017.40
2024-04-24T09:18:01.357Z,97021.66
2024-04-24T09:20:38.807Z,97025.70
2024-04-24T09:23:09.672Z,97023.89
2024-04-24T09:25:40.959Z,97026.46
2024-04-24T09:28:10.895Z,97032.17
2024-04-24T09:30:41.127Z,97033.86
2024-04-24T09:33:17.834Z,97034.60
2024-04-24T09:35:51.607Z,97040.34
2024-04-24T09:38:33.995Z,97043.48
2024-04-24T09:41:07.532Z,97036.84
2024-04-24T09:43:35.195Z,97031.30
2024-04-24T09:46:06.115Z,97035.40
2024-04-24T09:48:34.873Z,97028.30
2024-04-24T09:51:10.449Z,97023.78
2024-04-24T09:53:41.395Z,97025.40
2024-04-24T09:56:20.158Z,97026.50
2024-04-24T09:58:51.158Z,97025.38
2024-04-24T10:01:26.813Z,97025.39
2024-04-24T10:03:57.132Z,97028.80
2024-04-24T10:06:28.422Z,97023.33
2024-04-24T10:09:01.218Z,97027.94
2024-04-24T10:11:33.060Z,97023.29
2024-04-24T10:14:03.292Z,97026.84
2024-04-24T10:16:34.164Z,97030.15
2024-04-24T10:19:02.316Z,97023.12
2024-04-24T10:21:30.560Z,97030.17
2024-04-24T10:23:58.734Z,97033.66
2024-04-24T10:26:29.155Z,97029.64
2024-04-24T10:29:00.110Z,97032.20
2024-04-24T10:31:27.978Z,97039.08
2024-04-24T10:33:58.048Z,97043.29
2024-04-24T10:36:28.742Z,97035.55
2024-04-24T10:38:59.170Z,97037.08
2024-04-24T10:41:26.961Z,97033.34
2024-04-24T10:43:58.442Z,97031.13
2024-04-24T10:46:29.342Z,97035.16
2024-04-24T10:48:58.300Z,97038.98
2024-04-24T10:51:30.310Z,97038.06
2024-04-24T10:54:16.654Z,97035.19
2024-04-24T10:56:48.405Z,97033.42
2024-04-24T10:59:28.600Z,97036.64
2024-04-24T11:02:06.596Z,97033.60
2024-04-24T11:04:36.836Z,97033.29
2024-04-24T11:07:08.329Z,97032.36
2024-04-24T11:09:39.032Z,97028.39
2024-04-24T11:12:11.920Z,97032.30
2024-04-24T11:14:42.499Z,97034.85
2024-04-24T11:17:10.234Z,97039.56
2024-04-24T11:19:37.773Z,97039.74
2024-04-24T11:22:08.008Z,97040.10
2024-04-24T11:24:43.633Z,97043.84
2024-04-24T11:27:13.477Z,97046.13
2024-04-24T11:29:45.664Z,97052.74
2024-04-24T11:32:13.398Z,97052.45
2024-04-24T11:34:41.386Z,97048.98
2024-04-24T11:37:09.729Z,97042.10
2024-04-24T11:39:39.820Z,97041.77
2024-04-24T11:42:07.816Z,97045.39
2024-04-24T11:44:37.921Z,97042.10
2024-04-24T11:47:05.766Z,97039.88
2024-04-24T11:49:33.359Z,97040.02
2024-04-24T11:52:01.396Z,97046.09
2024-04-24T11:54:28.715Z,97046.23
2024-04-24T11:57:00.116Z,97047.29
2024-04-24T11:59:30.182Z,97044.93
2024-04-24T12:01:57.761Z,97040.45
2024-04-24T12:04:25.069Z,97044.41
2024-04-24T12:06:52.823Z,97046.92
2024-04-24T12:09:20.599Z,97052.09
2024-04-24T12:11:50.082Z,97056.50
2024-04-24T12:14:17.706Z,97054.40
2024-04-24T12:16:45.135Z,97059.98
2024-04-24T12:19:12.948Z,97059.60
2024-04-24T12:21:40.359Z,97059.69
2024-04-24T12:24:08.045Z,97061.70
2024-04-24T12:26:39.788Z,97062.38
2024-04-24T12:29:07.585Z,97058.70
2024-04-24T12:31:40.037Z,97058.69
2024-04-24T12:34:07.631Z,97060.35
2024-04-24T12:36:39.271Z,97063.91
2024-04-24T12:39:10.198Z,97059.03
2024-04-24T12:41:38.481Z,97063.30
2024-04-24T12:44:08.848Z,97061.48
2024-04-24T12:46:36.588Z,97060.48
2024-04-24T12:49:06.822Z,97062.72
2024-04-24T12:51:35.121Z,97063.77
2024-04-24T12:54:02.861Z,97069.59
2024-04-24T12:56:30.716Z,97071.35
2024-04-24T12:58:58.238Z,97070.96
2024-04-24T13:01:25.768Z,97074.91
2024-04-24T13:03:56.081Z,97067.53
2024-04-24T13:06:24.516Z,97073.55
2024-04-24T13:08:52.036Z,97075.54
2024-04-24T13:11:19.662Z,97082.17
2024-04-24T13:13:46.953Z,97077.92
2024-04-24T13:16:19.955Z,97075.84
2024-04-24T13:18:47.809Z,97073.42
2024-04-24T13:21:15.079Z,97072.08
2024-04-24T13:23:42.238Z,97079.19
2024-04-24T13:26:09.382Z,97091.70
2024-04-24T13:28:36.545Z,97095.06
2024-04-24T13:31:06.287Z,97098.36
2024-04-24T13:33:35.274Z,97094.47
2024-04-24T13:36:12.959Z,97098.88
2024-04-24T13:38:40.625Z,97099.39
2024-04-24T13:41:08.811Z,97099.84
2024-04-24T13:43:39.340Z,97097.48
2024-04-24T13:46:06.692Z,97097.19
2024-04-24T13:48:35.396Z,97098.58
2024-04-24T13:51:04.738Z,97109.08
2024-04-24T13:53:34.618Z,97110.81
2024-04-24T13:56:05.157Z,97115.63
2024-04-24T13:58:37.410Z,97115.23
2024-04-24T14:01:05.517Z,97120.65
2024-04-24T14:03:33.558Z,97118.48
2024-04-24T14:06:04.509Z,97116.94
2024-04-24T14:08:35.061Z,97117.70
2024-04-24T14:11:05.734Z,97117.35
2024-04-24T14:13:33.976Z,97113.89
2024-04-24T14:16:01.527Z,97114.66
2024-04-24T14:18:30.927Z,97113.08
2024-04-24T14:21:01.671Z,97112.42
2024-04-24T14:23:29.220Z,97108.02
2024-04-24T14:26:08.326Z,97109.29
2024-04-24T14:28:35.700Z,97115.42
2024-04-24T14:31:03.295Z,97112.11
2024-04-24T14:33:38.100Z,97115.59
2024-04-24T14:36:06.928Z,97116.02
2024-04-24T14:38:34.182Z,97122.39
2024-04-24T14:41:04.143Z,97125.46
2024-04-24T14:43:38.546Z,97134.52
2024-04-24T14:46:11.495Z,97135.77
2024-04-24T14:48:41.361Z,97140.29
2024-04-24T14:51:11.841Z,97141.33
2024-04-24T14:53:42.373Z,97147.54
2024-04-24T14:56:12.320Z,97147.61
2024-04-24T14:58:42.423Z,97150.83
2024-04-24T15:01:17.945Z,97147.96
2024-04-24T15:03:48.435Z,97146.20
2024-04-24T15:06:18.523Z,97155.27
2024-04-24T15:08:49.165Z,97154.23
2024-04-24T15:11:19.922Z,97156.69
2024-04-24T15:13:53.835Z,97154.04
2024-04-24T15:16:27.090Z,97147.45
2024-04-24T15:18:57.668Z,97145.54
2024-04-24T15:21:25.749Z,97144.80
2024-04-24T15:23:58.190Z,97144.90
2024-04-24T15:26:29.310Z,97140.55
2024-04-24T15:29:08.379Z,97146.23
2024-04-24T15:31:41.347Z,97147.71
2024-04-24T15:34:17.503Z,97148.45
2024-04-24T15:36:55.613Z,97144.20
2024-04-24T15:39:26.180Z,97147.46
2024-04-24T15:41:55.856Z,97148.60
2024-04-24T15:44:26.631Z,97142.09
2024-04-24T15:46:54.467Z,97147.30
2024-04-24T15:49:22.040Z,97146.30
2024-04-24T15:51:53.863Z,97146.13
2024-04-24T15:54:27.198Z,97138.21
2024-04-24T15:56:57.828Z,97139.77
2024-04-24T15:59:33.084Z,97137.11
2024-04-24T16:02:11.670Z,97121.73
2024-04-24T16:04:41.912Z,97123.54
2024-04-24T16:07:12.461Z,97130.78
2024-04-24T16:09:45.976Z,97131.33
2024-04-24T16:12:18.720Z,97128.42
2024-04-24T16:14:51.725Z,97129.70
2024-04-24T16:17:24.424Z,97127.03
2024-04-24T16:20:03.736Z,97130.55
2024-04-24T16:22:34.347Z,97132.34
2024-04-24T16:25:05.100Z,97123.83
2024-04-24T16:27:37.884Z,97121.92
2024-04-24T16:30:11.402Z,97124.24
2024-04-24T16:32:43.047Z,97122.02
2024-04-24T16:35:19.995Z,97117.36
2024-04-24T16:37:53.416Z,97108.09
2024-04-24T16:40:23.444Z,97111.69
2024-04-24T16:42:53.772Z,97117.02
2024-04-24T16:45:34.225Z,97120.70
2024-04-24T16:48:10.408Z,97125.98
2024-04-24T16:50:44.003Z,97125.75
2024-04-24T16:53:16.701Z,97130.58
2024-04-24T16:55:59.244Z,97128.89
2024-04-24T16:58:50.233Z,97129.79
2024-04-24T17:01:20.812Z,97125.73
2024-04-24T17:03:56.774Z,97121.73
2024-04-24T17:06:37.393Z,97129.43
2024-04-24T17:09:20.655Z,97135.57
2024-04-24T17:12:03.703Z,97142.67
2024-04-24T17:14:39.011Z,97148.17
2024-04-24T17:17:15.473Z,97144.63
2024-04-24T17:19:48.693Z,97141.64
2024-04-24T17:22:48.274Z,97150.51
2024-04-24T17:25:39.580Z,97161.42
2024-04-24T17:28:18.598Z,97168.52
2024-04-24T17:30:52.134Z,97164.95
2024-04-24T17:33:32.865Z,97171.17
2024-04-24T17:36:31.947Z,97174.75
2024-04-24T17:39:22.753Z,97181.11
2024-04-24T17:42:19.618Z,97190.02
2024-04-24T17:45:02.291Z,97197.28
2024-04-24T17:47:45.231Z,97197.95
2024-04-24T17:50:37.238Z,97196.02
2024-04-24T17:53:37.371Z,97203.59
2024-04-24T17:56:26.660Z,97205.21
2024-04-24T17:58:58.267Z,97214.23
2024-04-24T18:02:36.062Z,97221.88
2024-04-24T18:05:16.530Z,97228.69
2024-04-24T18:08:16.229Z,97242.29
2024-04-24T18:11:16.588Z,97242.01
2024-04-24T18:14:31.367Z,97235.96
2024-04-24T18:17:37.587Z,97238.94
2024-04-24T18:20:40.065Z,97247.50
2024-04-24T18:23:40.633Z,97256.87
2024-04-24T18:26:40.828Z,97258.76
2024-04-24T18:29:48.603Z,97267.45
2024-04-24T18:32:40.017Z,97273.17
2024-04-24T18:35:33.579Z,97282.95
2024-04-24T18:38:42.335Z,97282.31
2024-04-24T18:41:56.049Z,97278.96
2024-04-24T18:44:58.936Z,97282.39
2024-04-24T18:47:55.523Z,97280.29
2024-04-24T18:51:05.972Z,97284.27
2024-04-24T18:54:15.608Z,97283.05
2024-04-24T18:57:45.291Z,97278.81
2024-04-24T19:01:04.594Z,97287.29
2024-04-24T19:04:11.856Z,97294.31
2024-04-24T19:07:23.572Z,97303.11
2024-04-24T19:10:55.107Z,97311.07
2024-04-24T19:13:57.171Z,97320.00
2024-04-24T19:16:55.810Z,97332.73
2024-04-24T19:20:04.028Z,97341.54
2024-04-24T19:23:05.512Z,97343.73
2024-04-24T19:26:03.631Z,97351.81
2024-04-24T19:28:58.498Z,97354.75
2024-04-24T19:31:58.742Z,97357.28
2024-04-24T19:35:02.021Z,97355.15
2024-04-24T19:37:59.314Z,97349.69
2024-04-24T19:41:10.388Z,97354.17
2024-04-24T19:44:18.269Z,97356.00
2024-04-24T19:47:12.782Z,97362.45
2024-04-24T19:50:28.982Z,97359.09
2024-04-24T19:53:41.850Z,97360.20
2024-04-24T19:56:53.999Z,97355.78
2024-04-24T20:00:14.260Z,97352.77
2024-04-24T20:03:27.022Z,97356.28
2024-04-24T20:06:31.259Z,97352.42
2024-04-24T20:10:00.029Z,97350.79
2024-04-24T20:13:13.363Z,97346.90
2024-04-24T20:16:21.805Z,97349.30
2024-04-24T20:19:34.160Z,97350.83
2024-04-24T20:22:48.561Z,97358.67
2024-04-24T20:25:56.227Z,97363.34
2024-04-24T20:28:52.568Z,97367.40
2024-04-24T20:31:53.979Z,97369.30
2024-04-24T20:35:04.050Z,97370.29
2024-04-24T20:37:58.807Z,97359.96
2024-04-24T20:41:18.349Z,97356.92
2024-04-24T20:44:22.498Z,97347.78
2024-04-24T20:47:33.493Z,97330.79
2024-04-24T20:50:44.607Z,97334.55
2024-04-24T20:53:45.220Z,97320.98
2024-04-24T20:57:11.246Z,97331.02
2024-04-24T21:00:24.185Z,97324.19
2024-04-24T21:03:28.883Z,97314.92
2024-04-24T21:06:49.467Z,97328.77
2024-04-24T21:09:51.174Z,97326.77
2024-04-24T21:12:58.174Z,97319.02
2024-04-24T21:16:13.632Z,97318.05
2024-04-24T21:19:35.323Z,97333.40
2024-04-24T21:22:53.089Z,97339.69
2024-04-24T21:25:46.519Z,97338.63
2024-04-24T21:28:55.817Z,97340.00
2024-04-24T21:31:51.034Z,97346.60
2024-04-24T21:35:11.423Z,97363.00
2024-04-24T21:38:08.270Z,97367.95
2024-04-24T21:41:11.735Z,97373.61
2024-04-24T21:43:53.805Z,97368.33
2024-04-24T21:47:11.418Z,97376.75
2024-04-24T21:50:10.805Z,97386.83
2024-04-24T21:53:07.321Z,97390.48
2024-04-24T21:56:30.150Z,97393.87
2024-04-24T21:59:39.573Z,97400.42
2024-04-24T22:02:52.798Z,97399.68
2024-04-24T22:06:14.761Z,97392.92
2024-04-24T22:09:27.512Z,97395.35
2024-04-24T22:12:38.419Z,97393.15
2024-04-24T22:15:48.553Z,97394.27
2024-04-24T22:18:57.128Z,97404.75
2024-04-24T22:21:50.927Z,97411.80
2024-04-24T22:25:07.726Z,97410.27
2024-04-24T22:27:48.825Z,97409.42
2024-04-24T22:30:33.452Z,97408.67
2024-04-24T22:33:37.528Z,97417.92
2024-04-24T22:36:31.266Z,97418.50
2024-04-24T22:39:40.302Z,97419.21
2024-04-24T22:42:50.953Z,97422.84
2024-04-24T22:46:01.134Z,97417.66
2024-04-24T22:48:48.871Z,97417.33
2024-04-24T22:51:18.773Z,97412.45
2024-04-24T22:53:48.482Z,97401.60
2024-04-24T22:56:50.498Z,97396.55
2024-04-24T22:59:31.914Z,97396.17
2024-04-24T23:02:10.379Z,97396.30
2024-04-24T23:04:44.187Z,97398.06
2024-04-24T23:07:29.257Z,97393.39
2024-04-24T23:10:24.137Z,97395.09
2024-04-24T23:13:35.097Z,97399.42
2024-04-24T23:16:26.375Z,97399.91
2024-04-24T23:19:39.476Z,97395.92
2024-04-24T23:22:36.029Z,97402.10
2024-04-24T23:25:30.645Z,97390.73
2024-04-24T23:28:20.791Z,97382.02
2024-04-24T23:31:04.497Z,97380.07
2024-04-24T23:34:00.863Z,97383.38
2024-04-24T23:36:51.053Z,97386.21
2024-04-24T23:39:35.295Z,97390.82
2024-04-24T23:42:18.042Z,97392.80
2024-04-24T23:44:50.493Z,97392.78
2024-04-24T23:47:29.392Z,97395.51
2024-04-24T23:49:59.103Z,97391.63
2024-04-24T23:52:26.581Z,97390.74
2024-04-24T23:54:53.983Z,97386.02
2024-04-24T23:57:21.582Z,97382.08
